Sanford, North Carolina
Current Conditions -  °F | °C
As of 4:15 PM on Sunday 23 Nov 2014 (Local Time) from KTTA Reporting Station
Light Rain Light Rain  
Wind Chill: 52°   Ceiling: 700
Heat Index: 52°   Visibility: 2mi
Dew Point: 52°   Wind: 3mph
Humidity: 100%   Direction: 10°N
Pressure: 30.01"   Gusts: NA
Location:  35.47°N, 79.16°W
Report Text: KTTA 232115Z AUTO 01003KT 2SM -RA SCT002 OVC007 11/11 A3001 RMK AO2 T01130113
Loading
Personal Weather Stations






























Interactive Weather Map New forecast layout! Learn more

10-Day Weather Forecast

Advertisements
Track Severe Weather on mobile